createdAt,value
2023-02-25T00:02:32.048Z,2.85
2023-02-25T00:06:34.074Z,2.97
2023-02-25T00:10:36.444Z,3.00
2023-02-25T00:14:38.532Z,2.58
2023-02-25T00:18:44.251Z,2.72
2023-02-25T00:22:46.408Z,3.28
2023-02-25T00:26:48.613Z,2.83
2023-02-25T00:30:50.675Z,2.63
2023-02-25T00:34:53.119Z,2.95
2023-02-25T00:38:57.274Z,2.90
2023-02-25T00:42:59.316Z,3.00
2023-02-25T00:47:02.826Z,2.95
2023-02-25T00:51:16.556Z,3.40
2023-02-25T00:55:19.042Z,3.20
2023-02-25T00:59:21.074Z,2.90
2023-02-25T01:03:23.419Z,3.63
2023-02-25T01:07:26.158Z,3.30
2023-02-25T01:11:31.861Z,3.40
2023-02-25T01:15:34.593Z,3.53
2023-02-25T01:19:36.614Z,3.95
2023-02-25T01:23:38.631Z,3.50
2023-02-25T01:27:40.675Z,3.40
2023-02-25T01:31:44.293Z,3.60
2023-02-25T01:35:46.476Z,3.88
2023-02-25T01:39:49.580Z,3.78
2023-02-25T01:44:16.084Z,4.18
2023-02-25T01:48:24.873Z,22.35
2023-02-25T01:52:27.313Z,6.57
2023-02-25T01:56:31.040Z,3.90
2023-02-25T02:00:33.754Z,3.80
2023-02-25T02:04:38.036Z,4.28
2023-02-25T02:08:42.144Z,3.20
2023-02-25T02:12:45.344Z,3.10
2023-02-25T02:16:59.728Z,2.92
2023-02-25T02:21:32.607Z,2.70
2023-02-25T02:26:01.924Z,2.90
2023-02-25T02:30:34.651Z,3.10
2023-02-25T02:34:45.178Z,3.00
2023-02-25T02:39:01.739Z,3.00
2023-02-25T02:43:15.119Z,2.80
2023-02-25T02:47:23.195Z,3.20
2023-02-25T02:51:34.007Z,3.60
2023-02-25T02:55:43.736Z,3.58
2023-02-25T02:59:57.452Z,3.65
2023-02-25T03:04:03.578Z,3.30
2023-02-25T03:08:14.531Z,3.10
2023-02-25T03:12:17.254Z,3.50
2023-02-25T03:16:29.181Z,3.50
2023-02-25T03:20:42.376Z,3.35
2023-02-25T03:24:56.201Z,3.55
2023-02-25T03:28:58.623Z,2.92
2023-02-25T03:33:14.248Z,3.58
2023-02-25T03:37:27.080Z,3.22
2023-02-25T03:41:35.733Z,3.28
2023-02-25T03:45:40.358Z,3.40
2023-02-25T03:50:12.269Z,3.88
2023-02-25T03:54:16.649Z,3.83
2023-02-25T03:58:20.464Z,3.70
2023-02-25T04:02:32.483Z,3.60
2023-02-25T04:06:34.795Z,3.85
2023-02-25T04:10:36.891Z,3.72
2023-02-25T04:14:38.914Z,4.25
2023-02-25T04:18:41.822Z,3.92
2023-02-25T04:22:44.461Z,4.57
2023-02-25T04:26:46.473Z,4.40
2023-02-25T04:30:48.622Z,4.53
2023-02-25T04:34:51.315Z,4.50
2023-02-25T04:38:54.213Z,5.13
2023-02-25T04:42:56.213Z,4.60
2023-02-25T04:46:58.233Z,4.95
2023-02-25T04:51:03.600Z,4.20
2023-02-25T04:55:06.183Z,4.60
2023-02-25T04:59:11.243Z,4.40
2023-02-25T05:03:13.349Z,4.63
2023-02-25T05:07:15.372Z,4.72
2023-02-25T05:11:18.852Z,4.78
2023-02-25T05:15:20.905Z,4.53
2023-02-25T05:19:24.837Z,4.57
2023-02-25T05:23:26.877Z,3.92
2023-02-25T05:27:28.950Z,4.07
2023-02-25T05:31:31.095Z,4.63
2023-02-25T05:35:33.649Z,4.18
2023-02-25T05:39:35.643Z,3.95
2023-02-25T05:43:38.914Z,4.20
2023-02-25T05:47:40.986Z,4.20
2023-02-25T05:51:42.992Z,5.75
2023-02-25T05:55:46.113Z,4.32
2023-02-25T05:59:48.107Z,6.00
2023-02-25T06:03:51.874Z,7.35
2023-02-25T06:07:53.973Z,5.78
2023-02-25T06:11:56.002Z,4.90
2023-02-25T06:15:58.139Z,4.45
2023-02-25T06:20:01.220Z,4.70
2023-02-25T06:24:05.633Z,5.32
2023-02-25T06:28:07.749Z,5.50
2023-02-25T06:32:13.818Z,4.72
2023-02-25T06:36:16.869Z,5.22
2023-02-25T06:40:19.837Z,4.65
2023-02-25T06:44:21.848Z,5.20
2023-02-25T06:48:23.984Z,4.93
2023-02-25T06:52:26.032Z,5.38
2023-02-25T06:56:29.087Z,5.50
2023-02-25T07:00:31.637Z,4.88
2023-02-25T07:04:33.729Z,5.20
2023-02-25T07:08:36.090Z,5.18
2023-02-25T07:12:38.157Z,5.90
2023-02-25T07:16:40.155Z,5.25
2023-02-25T07:20:42.176Z,5.93
2023-02-25T07:24:45.518Z,5.28
2023-02-25T07:28:50.435Z,5.70
2023-02-25T07:32:52.468Z,5.85
2023-02-25T07:36:54.510Z,6.05
2023-02-25T07:40:56.622Z,5.97
2023-02-25T07:45:01.068Z,6.40
2023-02-25T07:49:03.997Z,7.05
2023-02-25T07:53:05.980Z,6.93
2023-02-25T07:57:08.035Z,6.40
2023-02-25T08:01:19.011Z,7.68
2023-02-25T08:05:22.627Z,7.00
2023-02-25T08:09:24.731Z,5.88
2023-02-25T08:13:27.311Z,6.10
2023-02-25T08:17:32.528Z,6.63
2023-02-25T08:21:34.966Z,6.22
2023-02-25T08:25:37.073Z,7.15
2023-02-25T08:29:39.127Z,6.45
2023-02-25T08:33:44.387Z,6.75
2023-02-25T08:37:46.434Z,6.20
2023-02-25T08:41:48.570Z,8.80
2023-02-25T08:45:51.742Z,6.80
2023-02-25T08:49:53.812Z,6.88
2023-02-25T08:53:55.816Z,6.00
2023-02-25T08:57:57.895Z,7.05
2023-02-25T09:01:59.909Z,7.05
2023-02-25T09:06:01.912Z,6.10
2023-02-25T09:10:09.277Z,5.82
2023-02-25T09:14:12.240Z,6.55
2023-02-25T09:18:14.295Z,6.70
2023-02-25T09:22:16.402Z,6.60
2023-02-25T09:26:19.754Z,5.57
2023-02-25T09:30:21.940Z,5.82
2023-02-25T09:34:23.954Z,5.20
2023-02-25T09:38:25.959Z,7.45
2023-02-25T09:42:44.194Z,6.38
2023-02-25T09:46:56.220Z,6.00
2023-02-25T09:51:07.744Z,5.88
2023-02-25T09:55:22.059Z,5.85
2023-02-25T09:59:24.483Z,5.93
2023-02-25T10:03:56.890Z,6.75
2023-02-25T10:08:23.477Z,4.78
2023-02-25T10:12:49.663Z,4.43
2023-02-25T10:17:09.695Z,4.07
2023-02-25T10:21:19.677Z,4.53
2023-02-25T10:25:32.436Z,3.65
2023-02-25T10:29:46.447Z,4.22
2023-02-25T10:33:51.286Z,4.57
2023-02-25T10:37:53.654Z,4.72
2023-02-25T10:41:56.287Z,4.40
2023-02-25T10:46:22.673Z,5.05
2023-02-25T10:50:42.835Z,5.47
2023-02-25T10:54:52.528Z,4.68
2023-02-25T10:59:05.265Z,21.60
2023-02-25T11:03:21.399Z,5.65
2023-02-25T11:07:35.551Z,2.70
2023-02-25T11:11:38.532Z,1.27
2023-02-25T11:15:45.675Z,1.02
2023-02-25T11:19:59.355Z,1.65
2023-02-25T11:24:05.998Z,1.20
2023-02-25T11:28:29.056Z,1.20
2023-02-25T11:32:33.479Z,1.00
2023-02-25T11:36:39.027Z,0.80
2023-02-25T11:40:44.174Z,0.82
2023-02-25T11:44:47.313Z,1.20
2023-02-25T11:49:16.588Z,1.10
2023-02-25T11:53:36.327Z,1.23
2023-02-25T11:58:14.990Z,1.40
2023-02-25T12:02:26.318Z,1.67
2023-02-25T12:06:53.204Z,1.30
2023-02-25T12:11:25.819Z,0.60
2023-02-25T12:16:08.166Z,1.00
2023-02-25T12:20:50.041Z,0.70
2023-02-25T12:24:58.466Z,1.10
2023-02-25T12:29:17.691Z,1.20
2023-02-25T12:33:25.012Z,0.80
2023-02-25T12:37:53.240Z,0.73
2023-02-25T12:42:26.305Z,0.80
2023-02-25T12:47:11.339Z,0.60
2023-02-25T12:51:40.501Z,0.95
2023-02-25T12:56:14.650Z,1.20
2023-02-25T13:00:51.081Z,1.13
2023-02-25T13:05:00.588Z,1.27
2023-02-25T13:09:29.805Z,1.20
2023-02-25T13:14:03.026Z,1.75
2023-02-25T13:18:53.401Z,1.40
2023-02-25T13:23:13.994Z,1.40
2023-02-25T13:27:34.892Z,1.20
2023-02-25T13:32:13.209Z,0.60
2023-02-25T13:36:31.543Z,0.80
2023-02-25T13:40:50.751Z,0.80
2023-02-25T13:45:25.186Z,0.63
2023-02-25T13:50:09.669Z,0.60
2023-02-25T13:54:38.506Z,0.60
2023-02-25T13:59:34.524Z,0.70
2023-02-25T14:03:55.629Z,0.60
2023-02-25T14:08:13.473Z,0.75
2023-02-25T14:13:15.414Z,1.00
2023-02-25T14:17:34.066Z,1.33
2023-02-25T14:22:20.175Z,2.05
2023-02-25T14:26:58.751Z,2.10
2023-02-25T14:31:15.962Z,0.82
2023-02-25T14:36:03.244Z,2.10
2023-02-25T14:40:24.051Z,1.70
2023-02-25T14:44:44.941Z,0.80
2023-02-25T14:49:06.665Z,1.30
2023-02-25T14:53:45.548Z,1.20
2023-02-25T14:58:14.953Z,1.10
2023-02-25T15:02:26.215Z,1.45
2023-02-25T15:06:47.952Z,1.17
2023-02-25T15:11:13.070Z,1.50
2023-02-25T15:15:40.779Z,8.07
2023-02-25T15:20:11.596Z,1.52
2023-02-25T15:24:25.844Z,1.58
2023-02-25T15:28:30.902Z,1.20
2023-02-25T15:32:56.170Z,1.10
2023-02-25T15:37:28.087Z,1.08
2023-02-25T15:41:39.594Z,1.00
2023-02-25T15:46:06.214Z,1.13
2023-02-25T15:50:10.576Z,0.73
2023-02-25T15:54:27.814Z,1.77
2023-02-25T15:58:30.181Z,1.00
2023-02-25T16:02:34.602Z,0.82
2023-02-25T16:06:41.351Z,0.85
2023-02-25T16:10:47.953Z,0.95
2023-02-25T16:14:52.150Z,0.77
2023-02-25T16:18:57.044Z,0.90
2023-02-25T16:23:00.786Z,0.80
2023-02-25T16:27:12.612Z,0.85
2023-02-25T16:31:18.643Z,0.65
2023-02-25T16:35:34.392Z,0.75
2023-02-25T16:39:37.829Z,0.93
2023-02-25T16:43:45.744Z,0.75
2023-02-25T16:47:55.231Z,0.90
2023-02-25T16:51:58.251Z,1.00
2023-02-25T16:56:00.917Z,0.68
2023-02-25T17:00:22.989Z,0.63
2023-02-25T17:04:37.222Z,0.77
2023-02-25T17:08:47.983Z,0.90
2023-02-25T17:12:50.044Z,0.63
2023-02-25T17:16:52.789Z,1.20
2023-02-25T17:21:03.235Z,0.70
2023-02-25T17:25:11.852Z,0.77
2023-02-25T17:29:16.027Z,0.70
2023-02-25T17:33:23.603Z,1.10
2023-02-25T17:37:29.722Z,1.10
2023-02-25T17:41:32.693Z,1.00
2023-02-25T17:45:44.688Z,0.98
2023-02-25T17:49:47.641Z,0.70
2023-02-25T17:53:58.010Z,0.70
2023-02-25T17:58:01.629Z,0.60
2023-02-25T18:02:27.826Z,0.70
2023-02-25T18:06:39.608Z,0.70
2023-02-25T18:10:44.438Z,1.08
2023-02-25T18:14:53.832Z,0.60
2023-02-25T18:18:57.276Z,0.70
2023-02-25T18:23:08.302Z,0.93
2023-02-25T18:27:29.363Z,2.80
2023-02-25T18:31:32.712Z,1.60
2023-02-25T18:35:34.920Z,1.50
2023-02-25T18:39:37.170Z,1.00
2023-02-25T18:43:41.895Z,1.25
2023-02-25T18:47:44.656Z,1.10
2023-02-25T18:51:49.516Z,0.90
2023-02-25T18:55:52.496Z,0.88
2023-02-25T18:59:54.757Z,1.08
2023-02-25T19:03:59.978Z,1.27
2023-02-25T19:08:02.237Z,1.13
2023-02-25T19:12:04.343Z,1.00
2023-02-25T19:16:06.956Z,1.13
2023-02-25T19:20:13.055Z,0.80
2023-02-25T19:24:15.047Z,0.90
2023-02-25T19:28:17.199Z,0.90
2023-02-25T19:32:20.524Z,1.98
2023-02-25T19:36:22.990Z,1.10
2023-02-25T19:40:25.549Z,0.88
2023-02-25T19:44:27.548Z,1.02
2023-02-25T19:48:29.567Z,1.27
2023-02-25T19:52:33.285Z,1.42
2023-02-25T19:56:35.279Z,1.00
2023-02-25T20:00:38.197Z,1.10
2023-02-25T20:04:40.759Z,1.10
2023-02-25T20:08:43.075Z,1.60
2023-02-25T20:12:46.598Z,0.80
2023-02-25T20:16:48.686Z,1.02
2023-02-25T20:20:50.772Z,0.90
2023-02-25T20:24:52.809Z,1.00
2023-02-25T20:28:55.143Z,1.20
2023-02-25T20:32:57.186Z,1.33
2023-02-25T20:37:06.177Z,2.10
2023-02-25T20:41:15.791Z,1.85
2023-02-25T20:45:18.188Z,1.00
2023-02-25T20:49:20.477Z,1.23
2023-02-25T20:53:23.048Z,1.20
2023-02-25T20:57:27.004Z,1.58
2023-02-25T21:01:29.074Z,1.25
2023-02-25T21:05:32.004Z,1.20
2023-02-25T21:09:34.593Z,1.20
2023-02-25T21:13:36.612Z,2.25
2023-02-25T21:17:38.638Z,2.13
2023-02-25T21:21:40.659Z,9.20
2023-02-25T21:25:42.639Z,1.58
2023-02-25T21:29:44.659Z,1.00
2023-02-25T21:33:46.671Z,1.33
2023-02-25T21:37:48.928Z,1.10
2023-02-25T21:41:50.933Z,1.02
2023-02-25T21:45:58.492Z,1.20
2023-02-25T21:50:00.565Z,1.33
2023-02-25T21:54:02.734Z,1.33
2023-02-25T21:58:04.747Z,1.10
2023-02-25T22:02:06.774Z,1.27
2023-02-25T22:06:09.533Z,1.20
2023-02-25T22:10:12.374Z,1.00
2023-02-25T22:14:14.389Z,1.23
2023-02-25T22:18:16.496Z,1.40
2023-02-25T22:22:18.462Z,1.50
2023-02-25T22:26:23.354Z,1.45
2023-02-25T22:30:25.801Z,1.40
2023-02-25T22:34:27.901Z,1.15
2023-02-25T22:38:31.981Z,1.80
2023-02-25T22:42:34.032Z,4.18
2023-02-25T22:46:38.501Z,1.88
2023-02-25T22:50:46.739Z,1.70
2023-02-25T22:54:48.720Z,1.77
2023-02-25T22:58:51.278Z,1.60
2023-02-25T23:02:53.447Z,1.88
2023-02-25T23:06:55.737Z,2.08
2023-02-25T23:11:12.246Z,1.80
2023-02-25T23:15:15.961Z,3.10
2023-02-25T23:19:19.640Z,4.97
2023-02-25T23:23:21.648Z,3.45
2023-02-25T23:27:23.639Z,4.32
2023-02-25T23:31:28.346Z,4.15
2023-02-25T23:35:30.605Z,8.48
2023-02-25T23:39:32.661Z,2.42
2023-02-25T23:43:35.187Z,3.67
2023-02-25T23:47:38.346Z,5.80
2023-02-25T23:51:45.798Z,2.90
2023-02-25T23:55:47.848Z,4.20
2023-02-25T23:59:49.828Z,3.03
